sensor_id;sensor_type;location;lat;lon;timestamp;temperature;humidity
16263;DHT22;8239;48.594;8.598;2023-02-18T00:01:24;8.90;99.90
16263;DHT22;8239;48.594;8.598;2023-02-18T00:03:52;9.00;99.90
16263;DHT22;8239;48.594;8.598;2023-02-18T00:06:22;9.00;99.90
16263;DHT22;8239;48.594;8.598;2023-02-18T00:08:50;9.10;99.90
16263;DHT22;8239;48.594;8.598;2023-02-18T00:11:18;9.20;99.90
16263;DHT22;8239;48.594;8.598;2023-02-18T00:13:49;9.20;99.90
16263;DHT22;8239;48.594;8.598;2023-02-18T00:16:16;9.30;99.90
16263;DHT22;8239;48.594;8.598;2023-02-18T00:18:43;9.30;99.90
16263;DHT22;8239;48.594;8.598;2023-02-18T00:21:10;9.30;99.90
16263;DHT22;8239;48.594;8.598;2023-02-18T00:23:38;9.30;99.90
16263;DHT22;8239;48.594;8.598;2023-02-18T00:26:07;9.30;99.90
16263;DHT22;8239;48.594;8.598;2023-02-18T00:28:35;9.30;99.90
16263;DHT22;8239;48.594;8.598;2023-02-18T00:31:06;9.30;99.90
16263;DHT22;8239;48.594;8.598;2023-02-18T00:33:33;9.30;99.90
16263;DHT22;8239;48.594;8.598;2023-02-18T00:36:01;9.30;99.90
16263;DHT22;8239;48.594;8.598;2023-02-18T00:38:28;9.30;99.90
16263;DHT22;8239;48.594;8.598;2023-02-18T00:40:57;9.30;99.90
16263;DHT22;8239;48.594;8.598;2023-02-18T00:43:24;9.30;99.90
16263;DHT22;8239;48.594;8.598;2023-02-18T00:45:51;9.30;99.90
16263;DHT22;8239;48.594;8.598;2023-02-18T00:48:18;9.30;99.90
16263;DHT22;8239;48.594;8.598;2023-02-18T00:50:45;9.30;99.90
16263;DHT22;8239;48.594;8.598;2023-02-18T00:53:13;9.30;99.90
16263;DHT22;8239;48.594;8.598;2023-02-18T00:55:40;9.20;99.90
16263;DHT22;8239;48.594;8.598;2023-02-18T00:58:09;9.20;99.90
16263;DHT22;8239;48.594;8.598;2023-02-18T01:00:36;9.20;99.90
16263;DHT22;8239;48.594;8.598;2023-02-18T01:03:04;9.20;99.90
16263;DHT22;8239;48.594;8.598;2023-02-18T01:05:33;9.20;99.90
16263;DHT22;8239;48.594;8.598;2023-02-18T01:08:00;9.20;99.90
16263;DHT22;8239;48.594;8.598;2023-02-18T01:10:27;9.20;99.90
16263;DHT22;8239;48.594;8.598;2023-02-18T01:12:54;9.20;99.90
16263;DHT22;8239;48.594;8.598;2023-02-18T01:15:23;9.20;99.90
16263;DHT22;8239;48.594;8.598;2023-02-18T01:17:50;9.20;99.90
16263;DHT22;8239;48.594;8.598;2023-02-18T01:20:18;9.20;99.90
16263;DHT22;8239;48.594;8.598;2023-02-18T01:22:45;9.20;99.90
16263;DHT22;8239;48.594;8.598;2023-02-18T01:25:12;9.20;99.90
16263;DHT22;8239;48.594;8.598;2023-02-18T01:27:40;9.10;99.90
16263;DHT22;8239;48.594;8.598;2023-02-18T01:30:11;9.10;99.90
16263;DHT22;8239;48.594;8.598;2023-02-18T01:32:39;9.00;99.90
16263;DHT22;8239;48.594;8.598;2023-02-18T01:35:10;9.00;99.90
16263;DHT22;8239;48.594;8.598;2023-02-18T01:37:37;9.00;99.90
16263;DHT22;8239;48.594;8.598;2023-02-18T01:40:05;9.00;99.90
16263;DHT22;8239;48.594;8.598;2023-02-18T01:42:32;8.90;99.90
16263;DHT22;8239;48.594;8.598;2023-02-18T01:45:38;8.90;99.90
16263;DHT22;8239;48.594;8.598;2023-02-18T01:48:12;8.90;99.90
16263;DHT22;8239;48.594;8.598;2023-02-18T01:50:44;8.90;99.90
16263;DHT22;8239;48.594;8.598;2023-02-18T01:53:13;8.90;99.90
16263;DHT22;8239;48.594;8.598;2023-02-18T01:55:41;8.90;99.90
16263;DHT22;8239;48.594;8.598;2023-02-18T01:58:08;8.90;99.90
16263;DHT22;8239;48.594;8.598;2023-02-18T02:00:37;8.90;99.90
16263;DHT22;8239;48.594;8.598;2023-02-18T02:03:04;8.90;99.90
16263;DHT22;8239;48.594;8.598;2023-02-18T02:05:33;8.80;99.90
16263;DHT22;8239;48.594;8.598;2023-02-18T02:08:00;8.80;99.90
16263;DHT22;8239;48.594;8.598;2023-02-18T02:10:37;8.80;99.90
16263;DHT22;8239;48.594;8.598;2023-02-18T02:13:14;8.80;99.90
16263;DHT22;8239;48.594;8.598;2023-02-18T02:15:45;8.90;99.90
16263;DHT22;8239;48.594;8.598;2023-02-18T02:18:30;9.00;99.90
16263;DHT22;8239;48.594;8.598;2023-02-18T02:21:31;9.10;99.90
16263;DHT22;8239;48.594;8.598;2023-02-18T02:24:52;9.20;99.90
16263;DHT22;8239;48.594;8.598;2023-02-18T02:27:25;9.20;99.90
16263;DHT22;8239;48.594;8.598;2023-02-18T02:30:33;9.30;99.90
16263;DHT22;8239;48.594;8.598;2023-02-18T02:36:18;9.40;99.90
16263;DHT22;8239;48.594;8.598;2023-02-18T02:38:53;9.40;99.90
16263;DHT22;8239;48.594;8.598;2023-02-18T02:41:31;9.40;99.90
16263;DHT22;8239;48.594;8.598;2023-02-18T02:44:06;9.50;99.90
16263;DHT22;8239;48.594;8.598;2023-02-18T02:46:39;9.50;99.90
16263;DHT22;8239;48.594;8.598;2023-02-18T02:49:15;9.50;99.90
16263;DHT22;8239;48.594;8.598;2023-02-18T02:51:49;9.50;99.90
16263;DHT22;8239;48.594;8.598;2023-02-18T02:54:19;9.50;99.90
16263;DHT22;8239;48.594;8.598;2023-02-18T02:56:47;9.50;99.90
16263;DHT22;8239;48.594;8.598;2023-02-18T02:59:17;9.50;99.90
16263;DHT22;8239;48.594;8.598;2023-02-18T03:01:55;9.50;99.90
16263;DHT22;8239;48.594;8.598;2023-02-18T03:04:50;9.50;99.90
16263;DHT22;8239;48.594;8.598;2023-02-18T03:07:45;9.40;99.90
16263;DHT22;8239;48.594;8.598;2023-02-18T03:10:29;9.40;99.90
16263;DHT22;8239;48.594;8.598;2023-02-18T03:13:04;9.40;99.90
16263;DHT22;8239;48.594;8.598;2023-02-18T03:15:38;9.30;99.90
16263;DHT22;8239;48.594;8.598;2023-02-18T03:18:13;9.20;99.90
16263;DHT22;8239;48.594;8.598;2023-02-18T03:20:47;9.10;99.90
16263;DHT22;8239;48.594;8.598;2023-02-18T03:23:23;9.10;99.90
16263;DHT22;8239;48.594;8.598;2023-02-18T03:25:52;9.10;99.90
16263;DHT22;8239;48.594;8.598;2023-02-18T03:28:20;9.00;99.90
16263;DHT22;8239;48.594;8.598;2023-02-18T03:30:50;9.00;99.90
16263;DHT22;8239;48.594;8.598;2023-02-18T03:33:24;9.00;99.90
16263;DHT22;8239;48.594;8.598;2023-02-18T03:35:53;9.00;99.90
16263;DHT22;8239;48.594;8.598;2023-02-18T03:38:25;9.00;99.90
16263;DHT22;8239;48.594;8.598;2023-02-18T03:40:54;9.00;99.90
16263;DHT22;8239;48.594;8.598;2023-02-18T03:43:22;9.00;99.90
16263;DHT22;8239;48.594;8.598;2023-02-18T03:45:49;9.00;99.90
16263;DHT22;8239;48.594;8.598;2023-02-18T03:48:17;9.00;99.90
16263;DHT22;8239;48.594;8.598;2023-02-18T03:50:43;8.90;99.90
16263;DHT22;8239;48.594;8.598;2023-02-18T03:53:10;8.90;99.90
16263;DHT22;8239;48.594;8.598;2023-02-18T03:55:39;8.90;99.90
16263;DHT22;8239;48.594;8.598;2023-02-18T03:58:07;8.80;99.90
16263;DHT22;8239;48.594;8.598;2023-02-18T04:00:34;8.70;99.90
16263;DHT22;8239;48.594;8.598;2023-02-18T04:03:01;8.70;99.90
16263;DHT22;8239;48.594;8.598;2023-02-18T04:05:28;8.60;99.90
16263;DHT22;8239;48.594;8.598;2023-02-18T04:07:55;8.60;99.90
16263;DHT22;8239;48.594;8.598;2023-02-18T04:10:22;8.60;99.90
16263;DHT22;8239;48.594;8.598;2023-02-18T04:12:50;8.60;99.90
16263;DHT22;8239;48.594;8.598;2023-02-18T04:15:17;8.60;99.90
16263;DHT22;8239;48.594;8.598;2023-02-18T04:17:44;8.60;99.90
16263;DHT22;8239;48.594;8.598;2023-02-18T04:20:11;8.50;99.90
16263;DHT22;8239;48.594;8.598;2023-02-18T04:22:38;8.50;99.90
16263;DHT22;8239;48.594;8.598;2023-02-18T04:25:06;8.50;99.90
16263;DHT22;8239;48.594;8.598;2023-02-18T04:27:33;8.50;99.90
16263;DHT22;8239;48.594;8.598;2023-02-18T04:30:02;8.50;99.90
16263;DHT22;8239;48.594;8.598;2023-02-18T04:32:29;8.50;99.90
16263;DHT22;8239;48.594;8.598;2023-02-18T04:34:56;8.50;99.90
16263;DHT22;8239;48.594;8.598;2023-02-18T04:37:23;8.50;99.90
16263;DHT22;8239;48.594;8.598;2023-02-18T04:39:50;8.60;99.90
16263;DHT22;8239;48.594;8.598;2023-02-18T04:42:17;8.60;99.90
16263;DHT22;8239;48.594;8.598;2023-02-18T04:44:44;8.60;99.90
16263;DHT22;8239;48.594;8.598;2023-02-18T04:47:12;8.60;99.90
16263;DHT22;8239;48.594;8.598;2023-02-18T04:49:39;8.70;99.90
16263;DHT22;8239;48.594;8.598;2023-02-18T04:52:06;8.70;99.90
16263;DHT22;8239;48.594;8.598;2023-02-18T04:54:33;8.70;99.90
16263;DHT22;8239;48.594;8.598;2023-02-18T04:57:00;8.80;99.90
16263;DHT22;8239;48.594;8.598;2023-02-18T04:59:27;8.90;99.90
16263;DHT22;8239;48.594;8.598;2023-02-18T05:01:54;8.90;99.90
16263;DHT22;8239;48.594;8.598;2023-02-18T05:04:22;9.00;99.90
16263;DHT22;8239;48.594;8.598;2023-02-18T05:06:49;9.10;99.90
16263;DHT22;8239;48.594;8.598;2023-02-18T05:09:16;9.10;99.90
16263;DHT22;8239;48.594;8.598;2023-02-18T05:11:43;9.20;99.90
16263;DHT22;8239;48.594;8.598;2023-02-18T05:14:12;9.20;99.90
16263;DHT22;8239;48.594;8.598;2023-02-18T05:16:39;9.20;99.90
16263;DHT22;8239;48.594;8.598;2023-02-18T05:19:06;9.20;99.90
16263;DHT22;8239;48.594;8.598;2023-02-18T05:21:34;9.40;99.90
16263;DHT22;8239;48.594;8.598;2023-02-18T05:24:01;9.40;99.90
16263;DHT22;8239;48.594;8.598;2023-02-18T05:26:28;9.40;99.90
16263;DHT22;8239;48.594;8.598;2023-02-18T05:28:55;9.40;99.90
16263;DHT22;8239;48.594;8.598;2023-02-18T05:31:22;9.40;99.90
16263;DHT22;8239;48.594;8.598;2023-02-18T05:33:49;9.50;99.90
16263;DHT22;8239;48.594;8.598;2023-02-18T05:36:16;9.50;99.90
16263;DHT22;8239;48.594;8.598;2023-02-18T05:38:45;9.50;99.90
16263;DHT22;8239;48.594;8.598;2023-02-18T05:41:12;9.40;99.90
16263;DHT22;8239;48.594;8.598;2023-02-18T05:43:38;9.50;99.90
16263;DHT22;8239;48.594;8.598;2023-02-18T05:46:19;9.40;99.90
16263;DHT22;8239;48.594;8.598;2023-02-18T05:48:46;9.40;99.90
16263;DHT22;8239;48.594;8.598;2023-02-18T05:51:13;9.40;99.90
16263;DHT22;8239;48.594;8.598;2023-02-18T05:53:41;9.40;99.90
16263;DHT22;8239;48.594;8.598;2023-02-18T05:56:09;9.30;99.90
16263;DHT22;8239;48.594;8.598;2023-02-18T05:58:36;9.30;99.90
16263;DHT22;8239;48.594;8.598;2023-02-18T06:01:03;9.30;99.90
16263;DHT22;8239;48.594;8.598;2023-02-18T06:03:30;9.30;99.90
16263;DHT22;8239;48.594;8.598;2023-02-18T06:05:57;9.30;99.90
16263;DHT22;8239;48.594;8.598;2023-02-18T06:08:24;9.30;99.90
16263;DHT22;8239;48.594;8.598;2023-02-18T06:10:51;9.30;99.90
16263;DHT22;8239;48.594;8.598;2023-02-18T06:13:19;9.30;99.90
16263;DHT22;8239;48.594;8.598;2023-02-18T06:15:49;9.30;99.90
16263;DHT22;8239;48.594;8.598;2023-02-18T06:18:16;9.40;99.90
16263;DHT22;8239;48.594;8.598;2023-02-18T06:20:43;9.40;99.90
16263;DHT22;8239;48.594;8.598;2023-02-18T06:23:10;9.50;99.90
16263;DHT22;8239;48.594;8.598;2023-02-18T06:25:37;9.50;99.90
16263;DHT22;8239;48.594;8.598;2023-02-18T06:28:04;9.50;99.90
16263;DHT22;8239;48.594;8.598;2023-02-18T06:30:32;9.50;99.90
16263;DHT22;8239;48.594;8.598;2023-02-18T06:32:59;9.60;99.90
16263;DHT22;8239;48.594;8.598;2023-02-18T06:35:28;9.60;99.90
16263;DHT22;8239;48.594;8.598;2023-02-18T06:37:55;9.60;99.90
16263;DHT22;8239;48.594;8.598;2023-02-18T06:40:23;9.60;99.90
16263;DHT22;8239;48.594;8.598;2023-02-18T06:42:50;9.60;99.90
16263;DHT22;8239;48.594;8.598;2023-02-18T06:45:17;9.60;99.90
16263;DHT22;8239;48.594;8.598;2023-02-18T06:47:46;9.70;99.90
16263;DHT22;8239;48.594;8.598;2023-02-18T06:50:13;9.80;99.90
16263;DHT22;8239;48.594;8.598;2023-02-18T06:52:41;9.80;99.90
16263;DHT22;8239;48.594;8.598;2023-02-18T06:55:08;9.80;99.90
16263;DHT22;8239;48.594;8.598;2023-02-18T06:57:35;9.80;99.90
16263;DHT22;8239;48.594;8.598;2023-02-18T07:00:04;9.80;99.90
16263;DHT22;8239;48.594;8.598;2023-02-18T07:02:32;9.80;99.90
16263;DHT22;8239;48.594;8.598;2023-02-18T07:05:00;9.90;99.90
16263;DHT22;8239;48.594;8.598;2023-02-18T07:07:27;9.90;99.90
16263;DHT22;8239;48.594;8.598;2023-02-18T07:09:54;9.90;99.90
16263;DHT22;8239;48.594;8.598;2023-02-18T07:12:21;9.90;99.90
16263;DHT22;8239;48.594;8.598;2023-02-18T07:14:48;10.00;99.90
16263;DHT22;8239;48.594;8.598;2023-02-18T07:17:15;10.00;99.90
16263;DHT22;8239;48.594;8.598;2023-02-18T07:19:42;10.00;99.90
16263;DHT22;8239;48.594;8.598;2023-02-18T07:22:11;10.00;99.90
16263;DHT22;8239;48.594;8.598;2023-02-18T07:24:38;10.00;99.90
16263;DHT22;8239;48.594;8.598;2023-02-18T07:27:05;10.00;99.90
16263;DHT22;8239;48.594;8.598;2023-02-18T07:29:32;10.00;99.90
16263;DHT22;8239;48.594;8.598;2023-02-18T07:31:59;10.00;99.90
16263;DHT22;8239;48.594;8.598;2023-02-18T07:34:26;10.00;99.90
16263;DHT22;8239;48.594;8.598;2023-02-18T07:36:53;10.00;99.90
16263;DHT22;8239;48.594;8.598;2023-02-18T07:39:21;10.00;99.90
16263;DHT22;8239;48.594;8.598;2023-02-18T07:41:48;9.90;99.90
16263;DHT22;8239;48.594;8.598;2023-02-18T07:44:15;9.90;99.90
16263;DHT22;8239;48.594;8.598;2023-02-18T07:46:42;10.00;99.90
16263;DHT22;8239;48.594;8.598;2023-02-18T07:49:09;10.00;99.90
16263;DHT22;8239;48.594;8.598;2023-02-18T07:51:36;10.00;99.90
16263;DHT22;8239;48.594;8.598;2023-02-18T07:54:05;10.00;99.90
16263;DHT22;8239;48.594;8.598;2023-02-18T07:56:33;10.00;99.90
16263;DHT22;8239;48.594;8.598;2023-02-18T07:59:00;10.00;99.90
16263;DHT22;8239;48.594;8.598;2023-02-18T08:01:27;9.90;99.90
16263;DHT22;8239;48.594;8.598;2023-02-18T08:03:54;10.00;99.90
16263;DHT22;8239;48.594;8.598;2023-02-18T08:06:25;10.00;99.90
16263;DHT22;8239;48.594;8.598;2023-02-18T08:08:52;10.00;99.90
16263;DHT22;8239;48.594;8.598;2023-02-18T08:11:19;10.00;99.90
16263;DHT22;8239;48.594;8.598;2023-02-18T08:13:48;10.00;99.90
16263;DHT22;8239;48.594;8.598;2023-02-18T08:16:15;10.00;99.90
16263;DHT22;8239;48.594;8.598;2023-02-18T08:18:42;10.00;99.90
16263;DHT22;8239;48.594;8.598;2023-02-18T08:21:10;10.00;99.90
16263;DHT22;8239;48.594;8.598;2023-02-18T08:23:37;10.00;99.90
16263;DHT22;8239;48.594;8.598;2023-02-18T08:26:04;10.00;99.90
16263;DHT22;8239;48.594;8.598;2023-02-18T08:28:31;10.00;99.90
16263;DHT22;8239;48.594;8.598;2023-02-18T08:30:59;10.00;99.90
16263;DHT22;8239;48.594;8.598;2023-02-18T08:33:27;10.00;99.90
16263;DHT22;8239;48.594;8.598;2023-02-18T08:35:54;10.10;99.90
16263;DHT22;8239;48.594;8.598;2023-02-18T08:38:23;10.10;99.90
16263;DHT22;8239;48.594;8.598;2023-02-18T08:40:50;10.10;99.90
16263;DHT22;8239;48.594;8.598;2023-02-18T08:43:17;10.20;99.90
16263;DHT22;8239;48.594;8.598;2023-02-18T08:45:44;10.20;99.90
16263;DHT22;8239;48.594;8.598;2023-02-18T08:48:13;10.20;99.90
16263;DHT22;8239;48.594;8.598;2023-02-18T08:50:41;10.20;99.90
16263;DHT22;8239;48.594;8.598;2023-02-18T08:53:08;10.20;99.90
16263;DHT22;8239;48.594;8.598;2023-02-18T08:55:35;10.20;99.90
16263;DHT22;8239;48.594;8.598;2023-02-18T08:58:04;10.20;99.90
16263;DHT22;8239;48.594;8.598;2023-02-18T09:00:32;10.20;99.90
16263;DHT22;8239;48.594;8.598;2023-02-18T09:03:00;10.20;99.90
16263;DHT22;8239;48.594;8.598;2023-02-18T09:05:44;10.20;99.90
16263;DHT22;8239;48.594;8.598;2023-02-18T09:08:12;10.20;99.90
16263;DHT22;8239;48.594;8.598;2023-02-18T09:10:39;10.10;99.90
16263;DHT22;8239;48.594;8.598;2023-02-18T09:13:06;10.10;99.90
16263;DHT22;8239;48.594;8.598;2023-02-18T09:15:41;10.20;99.90
16263;DHT22;8239;48.594;8.598;2023-02-18T09:18:08;10.20;99.90
16263;DHT22;8239;48.594;8.598;2023-02-18T09:20:39;10.20;99.90
16263;DHT22;8239;48.594;8.598;2023-02-18T09:23:06;10.20;99.90
16263;DHT22;8239;48.594;8.598;2023-02-18T09:25:33;10.20;99.90
16263;DHT22;8239;48.594;8.598;2023-02-18T09:27:59;10.20;99.90
16263;DHT22;8239;48.594;8.598;2023-02-18T09:30:26;10.20;99.90
16263;DHT22;8239;48.594;8.598;2023-02-18T09:32:54;10.20;99.90
16263;DHT22;8239;48.594;8.598;2023-02-18T09:35:21;10.20;99.90
16263;DHT22;8239;48.594;8.598;2023-02-18T09:37:49;10.20;99.90
16263;DHT22;8239;48.594;8.598;2023-02-18T09:40:23;10.20;99.90
16263;DHT22;8239;48.594;8.598;2023-02-18T09:42:53;10.20;99.90
16263;DHT22;8239;48.594;8.598;2023-02-18T09:45:21;10.20;99.90
16263;DHT22;8239;48.594;8.598;2023-02-18T09:47:49;10.20;99.90
16263;DHT22;8239;48.594;8.598;2023-02-18T09:50:19;10.30;99.90
16263;DHT22;8239;48.594;8.598;2023-02-18T09:52:49;10.30;99.90
16263;DHT22;8239;48.594;8.598;2023-02-18T09:55:19;10.40;99.90
16263;DHT22;8239;48.594;8.598;2023-02-18T09:57:49;10.40;99.90
16263;DHT22;8239;48.594;8.598;2023-02-18T10:00:19;10.50;99.90
16263;DHT22;8239;48.594;8.598;2023-02-18T10:02:53;10.60;99.90
16263;DHT22;8239;48.594;8.598;2023-02-18T10:05:23;10.70;99.90
16263;DHT22;8239;48.594;8.598;2023-02-18T10:07:53;10.80;99.90
16263;DHT22;8239;48.594;8.598;2023-02-18T10:10:30;10.90;99.90
16263;DHT22;8239;48.594;8.598;2023-02-18T10:12:59;11.00;99.90
16263;DHT22;8239;48.594;8.598;2023-02-18T10:15:28;11.00;99.90
16263;DHT22;8239;48.594;8.598;2023-02-18T10:17:56;11.10;99.90
16263;DHT22;8239;48.594;8.598;2023-02-18T10:20:26;11.10;99.90
16263;DHT22;8239;48.594;8.598;2023-02-18T10:22:59;11.10;99.90
16263;DHT22;8239;48.594;8.598;2023-02-18T10:25:27;11.10;99.90
16263;DHT22;8239;48.594;8.598;2023-02-18T10:27:57;11.00;99.90
16263;DHT22;8239;48.594;8.598;2023-02-18T10:30:31;11.00;99.90
16263;DHT22;8239;48.594;8.598;2023-02-18T10:33:04;11.00;99.90
16263;DHT22;8239;48.594;8.598;2023-02-18T10:35:39;11.00;99.90
16263;DHT22;8239;48.594;8.598;2023-02-18T10:38:15;11.00;99.90
16263;DHT22;8239;48.594;8.598;2023-02-18T10:40:55;11.00;99.90
16263;DHT22;8239;48.594;8.598;2023-02-18T10:43:29;11.00;99.90
16263;DHT22;8239;48.594;8.598;2023-02-18T10:46:06;11.00;99.90
16263;DHT22;8239;48.594;8.598;2023-02-18T10:48:53;11.00;99.90
16263;DHT22;8239;48.594;8.598;2023-02-18T10:51:25;11.00;99.90
16263;DHT22;8239;48.594;8.598;2023-02-18T10:53:56;11.10;99.90
16263;DHT22;8239;48.594;8.598;2023-02-18T10:56:33;11.20;99.90
16263;DHT22;8239;48.594;8.598;2023-02-18T10:59:08;11.20;99.90
16263;DHT22;8239;48.594;8.598;2023-02-18T11:01:37;11.30;99.90
16263;DHT22;8239;48.594;8.598;2023-02-18T11:04:09;11.40;99.90
16263;DHT22;8239;48.594;8.598;2023-02-18T11:06:39;11.50;99.90
16263;DHT22;8239;48.594;8.598;2023-02-18T11:09:27;11.50;99.90
16263;DHT22;8239;48.594;8.598;2023-02-18T11:12:04;11.50;99.90
16263;DHT22;8239;48.594;8.598;2023-02-18T11:14:40;11.50;99.90
16263;DHT22;8239;48.594;8.598;2023-02-18T11:17:14;11.60;99.90
16263;DHT22;8239;48.594;8.598;2023-02-18T11:19:42;11.60;99.90
16263;DHT22;8239;48.594;8.598;2023-02-18T11:22:15;11.70;99.90
16263;DHT22;8239;48.594;8.598;2023-02-18T11:24:45;11.70;99.90
16263;DHT22;8239;48.594;8.598;2023-02-18T11:27:21;11.80;99.90
16263;DHT22;8239;48.594;8.598;2023-02-18T11:29:51;12.00;99.90
16263;DHT22;8239;48.594;8.598;2023-02-18T11:32:20;12.20;99.90
16263;DHT22;8239;48.594;8.598;2023-02-18T11:34:48;12.30;99.90
16263;DHT22;8239;48.594;8.598;2023-02-18T11:37:18;12.40;99.60
16263;DHT22;8239;48.594;8.598;2023-02-18T11:39:49;12.50;99.20
16263;DHT22;8239;48.594;8.598;2023-02-18T11:42:19;12.60;99.20
16263;DHT22;8239;48.594;8.598;2023-02-18T11:44:50;12.60;98.40
16263;DHT22;8239;48.594;8.598;2023-02-18T11:47:24;12.70;98.10
16263;DHT22;8239;48.594;8.598;2023-02-18T11:50:16;12.80;97.80
16263;DHT22;8239;48.594;8.598;2023-02-18T11:52:48;12.90;97.30
16263;DHT22;8239;48.594;8.598;2023-02-18T11:55:19;13.00;96.70
16263;DHT22;8239;48.594;8.598;2023-02-18T11:57:49;13.00;96.10
16263;DHT22;8239;48.594;8.598;2023-02-18T12:00:23;13.00;96.10
16263;DHT22;8239;48.594;8.598;2023-02-18T12:02:51;13.10;96.10
16263;DHT22;8239;48.594;8.598;2023-02-18T12:05:22;13.20;95.80
16263;DHT22;8239;48.594;8.598;2023-02-18T12:07:52;13.30;95.00
16263;DHT22;8239;48.594;8.598;2023-02-18T12:10:26;13.30;94.60
16263;DHT22;8239;48.594;8.598;2023-02-18T12:12:59;13.40;94.50
16263;DHT22;8239;48.594;8.598;2023-02-18T12:15:33;13.40;94.20
16263;DHT22;8239;48.594;8.598;2023-02-18T12:18:19;13.50;94.10
16263;DHT22;8239;48.594;8.598;2023-02-18T12:20:58;13.60;93.50
16263;DHT22;8239;48.594;8.598;2023-02-18T12:23:33;13.70;92.90
16263;DHT22;8239;48.594;8.598;2023-02-18T12:26:08;13.70;92.20
16263;DHT22;8239;48.594;8.598;2023-02-18T12:28:50;13.70;92.30
16263;DHT22;8239;48.594;8.598;2023-02-18T12:31:35;13.50;91.70
16263;DHT22;8239;48.594;8.598;2023-02-18T12:34:16;13.40;91.70
16263;DHT22;8239;48.594;8.598;2023-02-18T12:36:57;13.20;92.00
16263;DHT22;8239;48.594;8.598;2023-02-18T12:39:39;13.10;92.80
16263;DHT22;8239;48.594;8.598;2023-02-18T12:42:22;13.00;92.70
16263;DHT22;8239;48.594;8.598;2023-02-18T12:45:00;12.90;92.50
16263;DHT22;8239;48.594;8.598;2023-02-18T12:47:35;12.80;92.60
16263;DHT22;8239;48.594;8.598;2023-02-18T12:50:46;12.70;92.80
16263;DHT22;8239;48.594;8.598;2023-02-18T12:53:29;12.60;92.80
16263;DHT22;8239;48.594;8.598;2023-02-18T12:56:25;12.50;92.90
16263;DHT22;8239;48.594;8.598;2023-02-18T12:59:07;12.50;93.20
16263;DHT22;8239;48.594;8.598;2023-02-18T13:01:44;12.50;93.20
16263;DHT22;8239;48.594;8.598;2023-02-18T13:04:27;12.40;93.50
16263;DHT22;8239;48.594;8.598;2023-02-18T13:07:37;12.40;93.70
16263;DHT22;8239;48.594;8.598;2023-02-18T13:10:24;12.40;93.70
16263;DHT22;8239;48.594;8.598;2023-02-18T13:12:58;12.40;94.00
16263;DHT22;8239;48.594;8.598;2023-02-18T13:15:36;12.40;94.20
16263;DHT22;8239;48.594;8.598;2023-02-18T13:18:13;12.50;94.10
16263;DHT22;8239;48.594;8.598;2023-02-18T13:20:45;12.60;94.00
16263;DHT22;8239;48.594;8.598;2023-02-18T13:23:17;12.70;94.00
16263;DHT22;8239;48.594;8.598;2023-02-18T13:25:46;12.80;93.80
16263;DHT22;8239;48.594;8.598;2023-02-18T13:28:22;12.90;93.60
16263;DHT22;8239;48.594;8.598;2023-02-18T13:31:01;12.90;93.10
16263;DHT22;8239;48.594;8.598;2023-02-18T13:33:35;12.80;93.00
16263;DHT22;8239;48.594;8.598;2023-02-18T13:36:11;12.80;93.00
16263;DHT22;8239;48.594;8.598;2023-02-18T13:38:54;12.80;93.30
16263;DHT22;8239;48.594;8.598;2023-02-18T13:41:25;12.80;93.20
16263;DHT22;8239;48.594;8.598;2023-02-18T13:43:52;12.80;93.10
16263;DHT22;8239;48.594;8.598;2023-02-18T13:46:21;12.80;93.20
16263;DHT22;8239;48.594;8.598;2023-02-18T13:48:50;12.80;93.00
16263;DHT22;8239;48.594;8.598;2023-02-18T13:51:27;12.70;93.10
16263;DHT22;8239;48.594;8.598;2023-02-18T13:54:00;12.70;93.00
16263;DHT22;8239;48.594;8.598;2023-02-18T13:56:30;12.60;93.20
16263;DHT22;8239;48.594;8.598;2023-02-18T13:59:00;12.60;93.30
16263;DHT22;8239;48.594;8.598;2023-02-18T14:01:38;12.60;93.30
16263;DHT22;8239;48.594;8.598;2023-02-18T14:07:46;12.60;93.40
16263;DHT22;8239;48.594;8.598;2023-02-18T14:10:40;12.60;93.20
16263;DHT22;8239;48.594;8.598;2023-02-18T14:13:25;12.70;93.40
16263;DHT22;8239;48.594;8.598;2023-02-18T14:16:05;12.80;93.30
16263;DHT22;8239;48.594;8.598;2023-02-18T14:18:55;13.00;92.80
16263;DHT22;8239;48.594;8.598;2023-02-18T14:21:36;13.10;92.70
16263;DHT22;8239;48.594;8.598;2023-02-18T14:24:46;13.20;92.60
16263;DHT22;8239;48.594;8.598;2023-02-18T14:27:15;13.20;91.80
16263;DHT22;8239;48.594;8.598;2023-02-18T14:29:43;13.10;91.50
16263;DHT22;8239;48.594;8.598;2023-02-18T14:32:11;13.00;91.30
16263;DHT22;8239;48.594;8.598;2023-02-18T14:35:07;12.90;91.80
16263;DHT22;8239;48.594;8.598;2023-02-18T14:43:31;13.00;91.90
16263;DHT22;8239;48.594;8.598;2023-02-18T14:46:11;13.00;92.20
16263;DHT22;8239;48.594;8.598;2023-02-18T14:48:50;13.10;92.00
16263;DHT22;8239;48.594;8.598;2023-02-18T14:51:21;13.00;91.90
16263;DHT22;8239;48.594;8.598;2023-02-18T14:53:49;13.00;92.20
16263;DHT22;8239;48.594;8.598;2023-02-18T14:56:20;13.40;93.60
16263;DHT22;8239;48.594;8.598;2023-02-18T14:58:49;13.90;92.00
16263;DHT22;8239;48.594;8.598;2023-02-18T15:01:19;14.20;90.50
16263;DHT22;8239;48.594;8.598;2023-02-18T15:03:48;14.20;89.60
16263;DHT22;8239;48.594;8.598;2023-02-18T15:06:23;14.20;90.00
16263;DHT22;8239;48.594;8.598;2023-02-18T15:08:51;14.20;89.60
16263;DHT22;8239;48.594;8.598;2023-02-18T15:11:20;14.10;89.10
16263;DHT22;8239;48.594;8.598;2023-02-18T15:13:48;14.00;89.30
16263;DHT22;8239;48.594;8.598;2023-02-18T15:16:19;13.90;89.30
16263;DHT22;8239;48.594;8.598;2023-02-18T15:18:53;13.80;90.00
16263;DHT22;8239;48.594;8.598;2023-02-18T15:21:24;13.80;90.00
16263;DHT22;8239;48.594;8.598;2023-02-18T15:23:53;13.60;89.60
16263;DHT22;8239;48.594;8.598;2023-02-18T15:26:22;13.40;90.00
16263;DHT22;8239;48.594;8.598;2023-02-18T15:28:55;13.30;90.50
16263;DHT22;8239;48.594;8.598;2023-02-18T15:31:25;13.20;90.90
16263;DHT22;8239;48.594;8.598;2023-02-18T15:33:52;13.10;90.70
16263;DHT22;8239;48.594;8.598;2023-02-18T15:36:19;13.00;90.90
16263;DHT22;8239;48.594;8.598;2023-02-18T15:38:47;12.80;91.20
16263;DHT22;8239;48.594;8.598;2023-02-18T15:41:15;12.70;91.50
16263;DHT22;8239;48.594;8.598;2023-02-18T15:43:53;12.50;92.00
16263;DHT22;8239;48.594;8.598;2023-02-18T15:46:21;12.30;92.60
16263;DHT22;8239;48.594;8.598;2023-02-18T15:48:51;12.10;92.70
16263;DHT22;8239;48.594;8.598;2023-02-18T15:51:22;12.00;93.10
16263;DHT22;8239;48.594;8.598;2023-02-18T15:53:53;12.00;93.80
16263;DHT22;8239;48.594;8.598;2023-02-18T15:56:28;12.10;94.10
16263;DHT22;8239;48.594;8.598;2023-02-18T15:59:09;12.10;93.80
16263;DHT22;8239;48.594;8.598;2023-02-18T16:01:36;12.10;93.60
16263;DHT22;8239;48.594;8.598;2023-02-18T16:04:05;12.00;93.60
16263;DHT22;8239;48.594;8.598;2023-02-18T16:06:37;11.90;93.70
16263;DHT22;8239;48.594;8.598;2023-02-18T16:09:12;11.80;94.00
16263;DHT22;8239;48.594;8.598;2023-02-18T16:11:44;11.70;94.30
16263;DHT22;8239;48.594;8.598;2023-02-18T16:14:28;11.50;94.70
16263;DHT22;8239;48.594;8.598;2023-02-18T16:17:06;11.40;95.20
16263;DHT22;8239;48.594;8.598;2023-02-18T16:19:42;11.30;95.60
16263;DHT22;8239;48.594;8.598;2023-02-18T16:22:33;11.20;96.00
16263;DHT22;8239;48.594;8.598;2023-02-18T16:25:06;11.10;96.50
16263;DHT22;8239;48.594;8.598;2023-02-18T16:27:35;11.00;96.80
16263;DHT22;8239;48.594;8.598;2023-02-18T16:30:14;10.90;97.20
16263;DHT22;8239;48.594;8.598;2023-02-18T16:32:41;10.80;97.70